Time;durP1;ratioP1;P1;durP2;ratioP2;P2;SDS_P1;SDS_P2;PMS_P1;PMS_P2;Temp;Humidity;BMP_temperature;BMP_pressure;BME280_temperature;BME280_humidity;BME280_pressure;Samples;Min_cycle;Max_cycle;Signal;HPM_P1;HPM_P2
2022/01/14 00:00:37;;;;;;;10.23;3.03;;;;;;;;;;4781309;28;20118;-69
2022/01/14 00:03:04;;;;;;;9.55;2.97;;;;;;;;;;4783450;28;20406;-69
2022/01/14 00:05:30;;;;;;;10.05;2.90;;;;;;;;;;4762807;28;21223;-69
2022/01/14 00:08:01;;;;;;;12.32;3.25;;;;;;;;;;4783432;28;20039;-69
2022/01/14 00:10:31;;;;;;;10.20;2.97;;;;;;;;;;4782737;28;20034;-69
2022/01/14 00:13:07;;;;;;;11.40;2.63;;;;;;;;;;4765812;28;20134;-69
2022/01/14 00:15:36;;;;;;;11.80;3.20;;;;;;;;;;4765178;28;20081;-69
2022/01/14 00:18:04;;;;;;;11.13;3.33;;;;;;;;;;4755650;28;20349;-69
2022/01/14 00:20:33;;;;;;;12.57;3.50;;;;;;;;;;4754387;28;20114;-69
2022/01/14 00:23:00;;;;;;;12.07;2.72;;;;;;;;;;4757355;28;20380;-69
2022/01/14 00:33:32;;;;;;;11.00;2.90;;;;;;;;;;4766416;28;20061;-69
2022/01/14 00:35:58;;;;;;;8.63;2.75;;;;;;;;;;4764537;28;20813;-69
2022/01/14 00:38:26;;;;;;;10.27;3.05;;;;;;;;;;4797054;28;20038;-69
2022/01/14 00:40:54;;;;;;;11.68;2.97;;;;;;;;;;4775785;28;20133;-68
2022/01/14 00:43:23;;;;;;;9.55;2.70;;;;;;;;;;4767958;28;20669;-69
2022/01/14 00:45:51;;;;;;;11.38;2.97;;;;;;;;;;4766742;28;20079;-67
2022/01/14 00:48:20;;;;;;;11.68;2.92;;;;;;;;;;4765887;28;20552;-66
2022/01/14 00:50:49;;;;;;;11.00;3.03;;;;;;;;;;4765002;28;20043;-67
2022/01/14 00:53:17;;;;;;;8.27;2.90;;;;;;;;;;4766737;28;20039;-68
2022/01/14 00:55:52;;;;;;;9.77;2.65;;;;;;;;;;4757095;28;20575;-68
2022/01/14 01:01:07;;;;;;;10.50;2.60;;;;;;;;;;4747839;28;20051;-68
2022/01/14 01:03:36;;;;;;;7.55;2.53;;;;;;;;;;4788463;28;20097;-67
2022/01/14 01:06:04;;;;;;;7.68;2.10;;;;;;;;;;4767037;28;20043;-67
2022/01/14 01:08:33;;;;;;;8.82;2.58;;;;;;;;;;4766971;28;20758;-68
2022/01/14 01:11:05;;;;;;;9.85;2.40;;;;;;;;;;4768173;28;20062;-67
2022/01/14 01:13:42;;;;;;;11.25;2.40;;;;;;;;;;4743325;28;20849;-68
2022/01/14 01:16:09;;;;;;;9.52;2.50;;;;;;;;;;4762925;28;20822;-67
2022/01/14 01:18:35;;;;;;;8.25;2.30;;;;;;;;;;4768213;28;20618;-67
2022/01/14 01:21:04;;;;;;;7.97;2.15;;;;;;;;;;4766768;28;20075;-68
2022/01/14 01:23:33;;;;;;;10.23;2.35;;;;;;;;;;4764493;28;20527;-67
2022/01/14 01:26:10;;;;;;;9.88;2.60;;;;;;;;;;4765081;28;20031;-68
2022/01/14 01:28:52;;;;;;;9.55;2.33;;;;;;;;;;4762719;28;20035;-67
2022/01/14 01:31:40;;;;;;;9.10;2.80;;;;;;;;;;4764697;28;20793;-67
2022/01/14 01:34:12;;;;;;;8.93;2.15;;;;;;;;;;4763877;28;20083;-66
2022/01/14 01:36:39;;;;;;;8.75;2.00;;;;;;;;;;4763024;28;21403;-67
2022/01/14 01:39:08;;;;;;;10.50;2.50;;;;;;;;;;4765751;28;20050;-66
2022/01/14 01:41:41;;;;;;;7.90;2.15;;;;;;;;;;4769360;28;20370;-67
2022/01/14 01:44:10;;;;;;;8.02;2.30;;;;;;;;;;4760554;28;20043;-67
2022/01/14 01:46:38;;;;;;;8.77;2.40;;;;;;;;;;4762866;28;20075;-67
2022/01/14 01:49:13;;;;;;;9.35;2.50;;;;;;;;;;4764677;28;20036;-67
2022/01/14 01:51:40;;;;;;;8.82;2.20;;;;;;;;;;4764186;28;20454;-67
2022/01/14 01:54:09;;;;;;;8.65;2.42;;;;;;;;;;4764980;28;20015;-67
2022/01/14 01:56:36;;;;;;;8.50;2.40;;;;;;;;;;4772293;28;20050;-67
2022/01/14 01:59:03;;;;;;;9.38;2.53;;;;;;;;;;4782017;28;20742;-67
2022/01/14 02:01:30;;;;;;;9.10;2.15;;;;;;;;;;4783298;28;21057;-67
2022/01/14 02:03:56;;;;;;;8.77;2.22;;;;;;;;;;4762916;28;20714;-67
2022/01/14 02:06:23;;;;;;;8.20;2.17;;;;;;;;;;4765856;28;20669;-67
2022/01/14 02:08:51;;;;;;;9.02;2.10;;;;;;;;;;4783505;28;20053;-68
2022/01/14 02:11:20;;;;;;;7.82;2.03;;;;;;;;;;4783106;28;20123;-67
2022/01/14 02:13:50;;;;;;;7.65;2.08;;;;;;;;;;4781905;28;20050;-67
2022/01/14 02:17:00;;;;;;;5.97;2.00;;;;;;;;;;4782871;28;20451;-68
2022/01/14 02:19:30;;;;;;;6.90;2.00;;;;;;;;;;4779868;28;22033;-67
2022/01/14 02:22:14;;;;;;;8.32;2.10;;;;;;;;;;4747004;28;20119;-67
2022/01/14 02:27:15;;;;;;;8.15;2.00;;;;;;;;;;4738573;28;20172;-67
2022/01/14 02:29:45;;;;;;;8.90;2.33;;;;;;;;;;4743026;28;20044;-67
2022/01/14 02:32:12;;;;;;;9.23;2.00;;;;;;;;;;4741010;28;21181;-67
2022/01/14 02:34:39;;;;;;;10.20;2.38;;;;;;;;;;4728268;29;20054;-67
2022/01/14 02:37:06;;;;;;;7.82;2.20;;;;;;;;;;4741479;28;20039;-67
2022/01/14 02:39:54;;;;;;;7.40;2.00;;;;;;;;;;4737169;28;20075;-70
2022/01/14 02:42:41;;;;;;;8.65;2.28;;;;;;;;;;4739019;28;21413;-67
2022/01/14 02:45:10;;;;;;;8.68;2.13;;;;;;;;;;4742585;28;20194;-67
2022/01/14 02:47:37;;;;;;;8.57;2.00;;;;;;;;;;4741617;28;20047;-67
2022/01/14 02:50:25;;;;;;;7.00;1.80;;;;;;;;;;4740011;28;20141;-69
2022/01/14 02:52:58;;;;;;;8.93;2.13;;;;;;;;;;4727616;28;20205;-67
2022/01/14 02:55:43;;;;;;;10.07;1.95;;;;;;;;;;4728553;29;20178;-67
2022/01/14 02:58:31;;;;;;;9.30;2.40;;;;;;;;;;4732159;29;20922;-67
2022/01/14 03:00:59;;;;;;;9.13;2.40;;;;;;;;;;4726117;29;20074;-67
2022/01/14 03:03:30;;;;;;;10.05;2.60;;;;;;;;;;4713539;29;20212;-67
2022/01/14 03:05:56;;;;;;;8.70;2.35;;;;;;;;;;4732905;29;20044;-67
2022/01/14 03:08:22;;;;;;;7.40;2.22;;;;;;;;;;4730341;29;20726;-67
2022/01/14 03:10:48;;;;;;;;;;;;;;;;;;4729561;29;20051;-67
2022/01/14 03:13:37;;;;;;;6.35;1.65;;;;;;;;;;4726053;29;20615;-68
2022/01/14 03:16:06;;;;;;;7.47;1.92;;;;;;;;;;4730916;29;20741;-67
2022/01/14 03:18:54;;;;;;;10.60;2.15;;;;;;;;;;4728443;29;20044;-67
2022/01/14 03:21:36;;;;;;;8.30;1.83;;;;;;;;;;4729041;29;20143;-67
2022/01/14 03:24:27;;;;;;;7.85;1.80;;;;;;;;;;4714440;29;20968;-67
2022/01/14 03:26:54;;;;;;;6.93;1.88;;;;;;;;;;4736350;28;20090;-67
2022/01/14 03:29:21;;;;;;;8.65;2.25;;;;;;;;;;4741278;28;20285;-68
2022/01/14 03:31:48;;;;;;;8.02;2.08;;;;;;;;;;4738106;28;20130;-67
2022/01/14 03:34:20;;;;;;;7.88;2.03;;;;;;;;;;4724802;28;20608;-67
2022/01/14 03:36:48;;;;;;;7.78;1.90;;;;;;;;;;4711473;29;20039;-67
2022/01/14 03:39:17;;;;;;;7.90;2.00;;;;;;;;;;4721738;28;20042;-67
2022/01/14 03:41:44;;;;;;;8.10;2.30;;;;;;;;;;4723967;28;22047;-68
2022/01/14 03:44:12;;;;;;;6.90;2.20;;;;;;;;;;4737188;28;20648;-67
2022/01/14 03:46:39;;;;;;;7.78;2.10;;;;;;;;;;4746830;28;20177;-67
2022/01/14 03:49:05;;;;;;;10.30;2.20;;;;;;;;;;4741088;28;21016;-67
2022/01/14 03:51:33;;;;;;;8.23;2.25;;;;;;;;;;4764616;28;20093;-67
2022/01/14 03:53:59;;;;;;;6.93;1.80;;;;;;;;;;4781823;28;20025;-67
2022/01/14 03:56:31;;;;;;;7.90;2.42;;;;;;;;;;4755219;28;20047;-68
2022/01/14 03:59:01;;;;;;;8.23;2.20;;;;;;;;;;4764099;28;20043;-68
2022/01/14 04:01:30;;;;;;;9.75;2.35;;;;;;;;;;4760218;28;20862;-68
2022/01/14 04:03:58;;;;;;;9.85;2.60;;;;;;;;;;4763299;28;20022;-68
2022/01/14 04:06:27;;;;;;;7.40;1.98;;;;;;;;;;4764627;28;20038;-67
2022/01/14 04:08:54;;;;;;;7.90;2.05;;;;;;;;;;4760146;28;20031;-68
2022/01/14 04:11:23;;;;;;;9.20;2.50;;;;;;;;;;4763980;28;20710;-68
2022/01/14 04:13:54;;;;;;;9.65;2.00;;;;;;;;;;4759461;28;20046;-68
2022/01/14 04:16:24;;;;;;;7.38;2.28;;;;;;;;;;4746902;28;20725;-69
2022/01/14 04:18:54;;;;;;;7.35;2.00;;;;;;;;;;4743968;28;20039;-68
2022/01/14 04:21:22;;;;;;;7.97;2.08;;;;;;;;;;4752513;28;20191;-68
2022/01/14 04:23:48;;;;;;;8.82;2.03;;;;;;;;;;4760169;28;20929;-69
2022/01/14 04:26:17;;;;;;;8.77;2.40;;;;;;;;;;4760755;28;20466;-67
2022/01/14 04:28:45;;;;;;;9.32;2.20;;;;;;;;;;4758897;28;20742;-69
2022/01/14 04:31:11;;;;;;;9.43;2.13;;;;;;;;;;4761725;28;21843;-68
2022/01/14 04:33:39;;;;;;;9.45;2.45;;;;;;;;;;4757357;28;20035;-68
2022/01/14 04:36:07;;;;;;;11.18;2.50;;;;;;;;;;4763205;28;20031;-67
2022/01/14 04:38:36;;;;;;;7.55;2.30;;;;;;;;;;4757327;28;20047;-68
2022/01/14 04:41:05;;;;;;;10.75;2.38;;;;;;;;;;4760047;28;20050;-68
2022/01/14 04:43:32;;;;;;;9.30;2.20;;;;;;;;;;4759744;28;20517;-67
2022/01/14 04:46:24;;;;;;;9.27;2.13;;;;;;;;;;4740472;28;20043;-68
2022/01/14 04:48:48;;;;;;;6.50;1.83;;;;;;;;;;4756950;28;20753;-68
2022/01/14 04:51:14;;;;;;;8.68;2.00;;;;;;;;;;4761518;28;20039;-67
2022/01/14 04:53:43;;;;;;;8.63;2.00;;;;;;;;;;4745415;28;20081;-68
2022/01/14 04:56:11;;;;;;;8.18;2.17;;;;;;;;;;4744253;28;20050;-67
2022/01/14 04:58:40;;;;;;;7.15;1.90;;;;;;;;;;4755531;28;20042;-68
2022/01/14 05:01:09;;;;;;;8.77;2.33;;;;;;;;;;4759600;28;20031;-68
2022/01/14 05:03:37;;;;;;;8.88;2.35;;;;;;;;;;4760222;28;20481;-68
2022/01/14 05:06:06;;;;;;;7.88;2.33;;;;;;;;;;4762299;28;20662;-67
2022/01/14 05:08:39;;;;;;;7.05;2.08;;;;;;;;;;4762852;28;20034;-67
2022/01/14 05:11:23;;;;;;;8.88;2.30;;;;;;;;;;4759958;28;20055;-66
2022/01/14 05:13:50;;;;;;;9.00;2.63;;;;;;;;;;4759044;28;20150;-67
2022/01/14 05:16:17;;;;;;;11.02;2.60;;;;;;;;;;4762231;28;21576;-69
2022/01/14 05:18:45;;;;;;;6.78;1.98;;;;;;;;;;4764056;28;20023;-69
2022/01/14 05:21:17;;;;;;;7.80;2.40;;;;;;;;;;4765889;28;20482;-67
2022/01/14 05:23:43;;;;;;;7.85;2.30;;;;;;;;;;4752523;28;20051;-68
2022/01/14 05:26:11;;;;;;;7.25;2.17;;;;;;;;;;4746063;28;20126;-68
2022/01/14 05:28:39;;;;;;;7.50;2.10;;;;;;;;;;4764807;28;21013;-68
2022/01/14 05:31:06;;;;;;;8.05;1.90;;;;;;;;;;4764332;28;20035;-68
2022/01/14 05:33:34;;;;;;;8.73;2.10;;;;;;;;;;4765307;28;20242;-68
2022/01/14 05:36:01;;;;;;;8.18;1.90;;;;;;;;;;4768170;28;20023;-67
2022/01/14 05:38:28;;;;;;;7.43;2.10;;;;;;;;;;4761671;28;20023;-67
2022/01/14 05:40:55;;;;;;;8.00;2.17;;;;;;;;;;4766863;28;20811;-67
2022/01/14 05:43:23;;;;;;;7.32;2.10;;;;;;;;;;4765023;28;22731;-67
2022/01/14 05:45:50;;;;;;;10.13;2.20;;;;;;;;;;4766724;28;20040;-67
2022/01/14 05:48:16;;;;;;;8.43;2.42;;;;;;;;;;4764423;28;20070;-68
2022/01/14 05:50:44;;;;;;;7.85;2.40;;;;;;;;;;4762007;28;20757;-68
2022/01/14 05:53:10;;;;;;;9.35;2.60;;;;;;;;;;4763028;28;21571;-67
2022/01/14 05:55:40;;;;;;;9.27;3.08;;;;;;;;;;4766133;28;20460;-67
2022/01/14 05:58:09;;;;;;;10.02;3.10;;;;;;;;;;4786476;28;20026;-67
2022/01/14 06:00:35;;;;;;;10.48;3.15;;;;;;;;;;4784721;28;20022;-68
2022/01/14 06:03:03;;;;;;;11.60;3.50;;;;;;;;;;4778008;28;20495;-67
2022/01/14 06:05:29;;;;;;;7.97;2.60;;;;;;;;;;4765520;28;21343;-68
2022/01/14 06:07:57;;;;;;;9.30;2.67;;;;;;;;;;4784737;28;20672;-68
2022/01/14 06:10:26;;;;;;;8.77;2.55;;;;;;;;;;4766940;28;20277;-68
2022/01/14 06:12:53;;;;;;;9.90;2.50;;;;;;;;;;4784921;28;20065;-69
2022/01/14 06:15:20;;;;;;;8.25;2.05;;;;;;;;;;4784317;28;20033;-67
2022/01/14 06:17:50;;;;;;;8.15;2.17;;;;;;;;;;4789639;28;20031;-67
2022/01/14 06:20:16;;;;;;;9.20;2.45;;;;;;;;;;4749996;28;20046;-67
2022/01/14 06:22:43;;;;;;;8.88;2.40;;;;;;;;;;4790210;28;20038;-67
2022/01/14 06:25:13;;;;;;;7.85;2.03;;;;;;;;;;4787011;28;20123;-67
2022/01/14 06:27:41;;;;;;;8.63;2.30;;;;;;;;;;4770383;28;20720;-67
2022/01/14 06:30:08;;;;;;;8.80;2.65;;;;;;;;;;4786909;28;20038;-68
2022/01/14 06:32:41;;;;;;;9.73;2.72;;;;;;;;;;4787359;28;20026;-67
2022/01/14 06:35:07;;;;;;;8.52;2.70;;;;;;;;;;4789504;28;20491;-67
2022/01/14 06:37:35;;;;;;;10.70;2.65;;;;;;;;;;4770546;28;20041;-68
2022/01/14 06:40:04;;;;;;;9.20;2.72;;;;;;;;;;4783623;28;20333;-67
2022/01/14 06:42:31;;;;;;;10.02;2.83;;;;;;;;;;4769573;28;20034;-67
2022/01/14 06:44:59;;;;;;;8.30;2.63;;;;;;;;;;4770376;28;20404;-66
2022/01/14 06:47:29;;;;;;;8.73;2.78;;;;;;;;;;4788073;28;20109;-68
2022/01/14 06:49:56;;;;;;;10.10;2.72;;;;;;;;;;4783843;28;20533;-67
2022/01/14 06:52:23;;;;;;;8.32;2.45;;;;;;;;;;4778423;28;20382;-67
2022/01/14 06:54:51;;;;;;;11.05;2.78;;;;;;;;;;4782522;28;20330;-67
2022/01/14 06:57:17;;;;;;;7.32;2.25;;;;;;;;;;4763378;28;20054;-67
2022/01/14 06:59:46;;;;;;;8.15;2.22;;;;;;;;;;4763011;28;20566;-67
2022/01/14 07:02:14;;;;;;;10.50;2.33;;;;;;;;;;4764969;28;20034;-69
2022/01/14 07:04:42;;;;;;;8.10;2.60;;;;;;;;;;4758886;28;20105;-67
2022/01/14 07:07:09;;;;;;;7.90;2.40;;;;;;;;;;4764179;28;20035;-68
2022/01/14 07:09:35;;;;;;;;;;;;;;;;;;4764657;28;20035;-69
2022/01/14 07:12:05;;;;;;;9.70;2.80;;;;;;;;;;4764719;28;20606;-67
2022/01/14 07:14:33;;;;;;;9.25;2.45;;;;;;;;;;4763562;28;20031;-67
2022/01/14 07:16:59;;;;;;;7.47;2.00;;;;;;;;;;4760644;28;20035;-67
2022/01/14 07:19:26;;;;;;;8.75;2.10;;;;;;;;;;4763584;28;21510;-68
2022/01/14 07:21:52;;;;;;;9.30;2.35;;;;;;;;;;4761140;28;20087;-67
2022/01/14 07:24:20;;;;;;;9.23;2.60;;;;;;;;;;4761724;28;20058;-68
2022/01/14 07:26:50;;;;;;;8.75;3.00;;;;;;;;;;4764531;28;20169;-67
2022/01/14 07:29:17;;;;;;;11.25;3.67;;;;;;;;;;4758727;28;22079;-68
2022/01/14 07:31:47;;;;;;;10.20;3.80;;;;;;;;;;4764118;28;20065;-67
2022/01/14 07:34:14;;;;;;;10.60;2.97;;;;;;;;;;4764697;28;20027;-67
2022/01/14 07:36:40;;;;;;;7.90;2.88;;;;;;;;;;4763709;28;20049;-67
2022/01/14 07:39:08;;;;;;;9.02;3.22;;;;;;;;;;4763828;28;21233;-67
2022/01/14 07:41:35;;;;;;;11.10;3.35;;;;;;;;;;4759404;28;20038;-68
2022/01/14 07:44:03;;;;;;;9.88;3.20;;;;;;;;;;4762395;28;20120;-68
2022/01/14 07:46:31;;;;;;;11.80;3.25;;;;;;;;;;4763437;28;20038;-69
2022/01/14 07:48:58;;;;;;;8.80;2.80;;;;;;;;;;4762880;28;20043;-68
2022/01/14 07:51:25;;;;;;;10.15;2.60;;;;;;;;;;4759904;28;20110;-68
2022/01/14 07:53:52;;;;;;;8.65;2.35;;;;;;;;;;4742389;28;20849;-68
2022/01/14 07:56:20;;;;;;;7.95;2.40;;;;;;;;;;4769480;28;20054;-69
2022/01/14 07:58:48;;;;;;;10.70;2.90;;;;;;;;;;4768593;28;20733;-68
2022/01/14 08:01:16;;;;;;;10.95;2.75;;;;;;;;;;4784126;28;20744;-69
2022/01/14 08:03:44;;;;;;;9.68;2.80;;;;;;;;;;4761116;28;20038;-68
2022/01/14 08:06:11;;;;;;;9.85;3.10;;;;;;;;;;4779139;28;20039;-68
2022/01/14 08:08:39;;;;;;;12.38;3.88;;;;;;;;;;4783729;28;20041;-68
2022/01/14 08:11:06;;;;;;;10.90;3.42;;;;;;;;;;4785147;28;20038;-70
2022/01/14 08:13:34;;;;;;;11.50;3.60;;;;;;;;;;4776482;28;20038;-68
2022/01/14 08:16:02;;;;;;;11.20;4.40;;;;;;;;;;4779146;28;20038;-68
2022/01/14 08:18:31;;;;;;;14.10;5.03;;;;;;;;;;4781806;28;20509;-68
2022/01/14 08:21:00;;;;;;;19.42;7.40;;;;;;;;;;4766735;28;20408;-69
2022/01/14 08:23:28;;;;;;;19.70;8.27;;;;;;;;;;4784075;28;20042;-69
2022/01/14 08:25:57;;;;;;;23.45;11.38;;;;;;;;;;4783074;28;20165;-68
2022/01/14 08:28:26;;;;;;;25.27;12.68;;;;;;;;;;4744236;28;20043;-68
2022/01/14 08:30:52;;;;;;;18.95;10.02;;;;;;;;;;4781284;28;20034;-69
2022/01/14 08:33:20;;;;;;;16.27;7.75;;;;;;;;;;4782374;28;20805;-69
2022/01/14 08:35:48;;;;;;;16.55;7.30;;;;;;;;;;4783755;28;20676;-68
2022/01/14 08:38:15;;;;;;;12.38;5.93;;;;;;;;;;4783027;28;20136;-69
2022/01/14 08:40:43;;;;;;;14.27;5.47;;;;;;;;;;4747070;28;21884;-67
2022/01/14 08:43:12;;;;;;;14.27;5.55;;;;;;;;;;4767513;28;20037;-68
2022/01/14 08:45:39;;;;;;;12.13;4.55;;;;;;;;;;4782003;28;20443;-69
2022/01/14 08:48:07;;;;;;;12.18;4.75;;;;;;;;;;4786155;28;21275;-69
2022/01/14 08:50:37;;;;;;;12.55;4.38;;;;;;;;;;4787501;28;20109;-69
2022/01/14 08:53:04;;;;;;;11.45;4.60;;;;;;;;;;4784793;28;21274;-69
2022/01/14 08:55:34;;;;;;;13.35;4.95;;;;;;;;;;4786487;28;20034;-68
2022/01/14 08:58:03;;;;;;;14.02;5.57;;;;;;;;;;4767753;28;20046;-67
2022/01/14 09:00:32;;;;;;;18.13;7.88;;;;;;;;;;4767328;28;20054;-67
2022/01/14 09:03:00;;;;;;;24.48;10.52;;;;;;;;;;4769739;28;20137;-67
2022/01/14 09:05:28;;;;;;;31.05;12.32;;;;;;;;;;4763353;28;20900;-68
2022/01/14 09:07:56;;;;;;;31.00;12.70;;;;;;;;;;4766246;28;21061;-68
2022/01/14 09:10:22;;;;;;;24.90;10.93;;;;;;;;;;4787867;28;20674;-68
2022/01/14 09:12:53;;;;;;;24.63;10.73;;;;;;;;;;4785808;28;20852;-68
2022/01/14 09:15:28;;;;;;;21.02;9.45;;;;;;;;;;4769627;28;20054;-70
2022/01/14 09:18:04;;;;;;;17.92;8.07;;;;;;;;;;4769902;28;20230;-70
2022/01/14 09:20:37;;;;;;;20.80;8.80;;;;;;;;;;4764533;28;20121;-69
2022/01/14 09:23:12;;;;;;;16.48;7.38;;;;;;;;;;4788541;28;22126;-69
2022/01/14 09:25:47;;;;;;;17.48;7.55;;;;;;;;;;4785585;28;20669;-68
2022/01/14 09:28:17;;;;;;;15.20;6.55;;;;;;;;;;4848178;28;20066;-68
2022/01/14 09:30:44;;;;;;;12.20;5.25;;;;;;;;;;4958096;28;20034;-69
2022/01/14 09:33:38;;;;;;;11.73;3.65;;;;;;;;;;4810632;28;20038;-68
2022/01/14 09:36:06;;;;;;;10.40;3.28;;;;;;;;;;4773270;28;20037;-68
2022/01/14 09:38:34;;;;;;;11.48;3.00;;;;;;;;;;4769511;28;20050;-68
2022/01/14 09:41:02;;;;;;;11.23;2.83;;;;;;;;;;4797462;28;20745;-68
2022/01/14 09:43:36;;;;;;;9.80;2.38;;;;;;;;;;4756003;28;20161;-68
2022/01/14 09:46:11;;;;;;;9.55;2.60;;;;;;;;;;4775029;28;20038;-68
2022/01/14 09:48:39;;;;;;;8.50;2.30;;;;;;;;;;4871446;28;20160;-68
2022/01/14 09:51:06;;;;;;;9.10;2.72;;;;;;;;;;4961549;28;20418;-69
2022/01/14 09:53:36;;;;;;;8.90;2.45;;;;;;;;;;4926961;28;20538;-69
2022/01/14 09:56:06;;;;;;;8.13;2.22;;;;;;;;;;4857452;28;20138;-69
2022/01/14 09:58:37;;;;;;;9.68;2.70;;;;;;;;;;4804193;28;20066;-69
2022/01/14 10:01:13;;;;;;;10.57;2.50;;;;;;;;;;4952819;28;20030;-69
2022/01/14 10:04:01;;;;;;;7.82;2.40;;;;;;;;;;4955450;28;20038;-69
2022/01/14 10:06:47;;;;;;;8.80;2.25;;;;;;;;;;4792190;28;20125;-68
2022/01/14 10:09:21;;;;;;;8.32;2.25;;;;;;;;;;4780094;28;20038;-69
2022/01/14 10:12:06;;;;;;;9.32;2.20;;;;;;;;;;4762896;28;20396;-69
2022/01/14 10:14:39;;;;;;;7.75;1.98;;;;;;;;;;4780401;28;20030;-68
2022/01/14 10:17:07;;;;;;;6.43;1.95;;;;;;;;;;4762436;28;20045;-69
2022/01/14 10:19:37;;;;;;;8.43;2.00;;;;;;;;;;4921379;28;20027;-69
2022/01/14 10:22:18;;;;;;;7.80;2.15;;;;;;;;;;4955529;28;20068;-69
2022/01/14 10:24:55;;;;;;;8.13;2.28;;;;;;;;;;4871345;28;20034;-69
2022/01/14 10:27:41;;;;;;;7.78;1.98;;;;;;;;;;4785308;28;20646;-69
2022/01/14 10:30:33;;;;;;;10.32;2.80;;;;;;;;;;4930448;28;20121;-70
2022/01/14 10:33:09;;;;;;;10.60;2.88;;;;;;;;;;4957532;28;20034;-69
2022/01/14 10:38:51;;;;;;;6.55;2.10;;;;;;;;;;4784181;28;20051;-69
2022/01/14 10:41:21;;;;;;;9.88;3.63;;;;;;;;;;4777606;28;20090;-69
2022/01/14 10:43:48;;;;;;;11.65;3.15;;;;;;;;;;4777161;28;20065;-70
2022/01/14 10:46:16;;;;;;;7.88;2.60;;;;;;;;;;4779094;28;20030;-71
2022/01/14 10:48:46;;;;;;;8.55;2.60;;;;;;;;;;4777957;28;20623;-70
2022/01/14 10:51:17;;;;;;;7.72;1.92;;;;;;;;;;4778638;28;20046;-70
2022/01/14 10:53:52;;;;;;;9.98;2.65;;;;;;;;;;4777937;28;20062;-69
2022/01/14 10:56:25;;;;;;;6.75;1.80;;;;;;;;;;4778188;28;20114;-68
2022/01/14 10:58:59;;;;;;;8.30;2.00;;;;;;;;;;4779281;28;20030;-69
2022/01/14 11:01:28;;;;;;;6.90;1.80;;;;;;;;;;4779246;28;20038;-69
2022/01/14 11:04:02;;;;;;;10.02;3.08;;;;;;;;;;4778970;28;20387;-69
2022/01/14 11:06:38;;;;;;;8.93;2.83;;;;;;;;;;4760143;28;20281;-70
2022/01/14 11:09:17;;;;;;;9.13;2.67;;;;;;;;;;4761971;28;20035;-70
2022/01/14 11:11:46;;;;;;;8.73;2.05;;;;;;;;;;4761437;28;20096;-68
2022/01/14 11:14:15;;;;;;;6.68;1.63;;;;;;;;;;4778591;28;20027;-70
2022/01/14 11:16:42;;;;;;;6.95;2.10;;;;;;;;;;4782749;28;20767;-69
2022/01/14 11:19:13;;;;;;;7.50;2.30;;;;;;;;;;4762174;28;20080;-70
2022/01/14 11:24:26;;;;;;;;;;;;;;;;;;4764447;28;20053;-70
2022/01/14 11:27:01;;;;;;;14.52;2.58;;;;;;;;;;4779326;28;20209;-71
2022/01/14 11:29:33;;;;;;;9.13;2.30;;;;;;;;;;4741138;28;474085;-68
2022/01/14 11:32:20;;;;;;;10.57;2.83;;;;;;;;;;4813507;27;2186968;-72
2022/01/14 11:34:50;;;;;;;7.32;2.00;;;;;;;;;;4543424;28;4157734;-70
2022/01/14 11:37:31;;;;;;;7.75;2.28;;;;;;;;;;4917749;28;20078;-70
2022/01/14 11:40:12;;;;;;;8.80;2.45;;;;;;;;;;5010396;28;20885;-71
2022/01/14 11:42:43;;;;;;;7.82;2.28;;;;;;;;;;5006533;28;20122;-70
2022/01/14 11:45:12;;;;;;;7.85;2.10;;;;;;;;;;4822037;28;20029;-71
2022/01/14 11:47:45;;;;;;;8.10;2.13;;;;;;;;;;4817074;28;20727;-71
2022/01/14 11:50:27;;;;;;;7.65;2.08;;;;;;;;;;4816175;28;20673;-73
2022/01/14 11:52:57;;;;;;;6.95;2.00;;;;;;;;;;4818707;28;20041;-70
2022/01/14 11:55:38;;;;;;;7.85;2.45;;;;;;;;;;4817666;28;20034;-69
2022/01/14 11:58:07;;;;;;;7.60;1.70;;;;;;;;;;4817458;28;20037;-72
2022/01/14 12:00:37;;;;;;;7.72;1.95;;;;;;;;;;4793651;28;21187;-70
2022/01/14 12:03:14;;;;;;;7.30;1.98;;;;;;;;;;4816774;28;20709;-73
2022/01/14 12:05:55;;;;;;;8.43;2.35;;;;;;;;;;4819965;28;20042;-72
2022/01/14 12:08:31;;;;;;;8.82;3.00;;;;;;;;;;4816350;28;20038;-72
2022/01/14 12:11:01;;;;;;;8.10;3.00;;;;;;;;;;4778100;28;98363;-72
2022/01/14 12:13:48;;;;;;;7.72;2.50;;;;;;;;;;4791528;28;20109;-71
2022/01/14 12:16:38;;;;;;;9.32;2.20;;;;;;;;;;4753230;28;20077;-69
2022/01/14 12:19:08;;;;;;;7.68;2.00;;;;;;;;;;4793196;28;20038;-70
2022/01/14 12:21:42;;;;;;;7.47;1.80;;;;;;;;;;4770051;28;20628;-72
2022/01/14 12:24:17;;;;;;;6.70;1.85;;;;;;;;;;4792669;28;20160;-71
2022/01/14 12:27:11;;;;;;;8.48;2.20;;;;;;;;;;4798077;28;20034;-72
2022/01/14 12:29:46;;;;;;;7.47;2.15;;;;;;;;;;4842227;28;20045;-72
2022/01/14 12:32:22;;;;;;;8.30;2.40;;;;;;;;;;4983191;28;20072;-69
2022/01/14 12:34:52;;;;;;;7.07;2.05;;;;;;;;;;4987002;28;20041;-70
2022/01/14 12:37:28;;;;;;;9.55;2.55;;;;;;;;;;4966358;28;20499;-70
2022/01/14 12:39:55;;;;;;;10.35;3.00;;;;;;;;;;4830800;28;21242;-69
2022/01/14 12:42:22;;;;;;;9.10;2.47;;;;;;;;;;4808467;28;20129;-69
2022/01/14 12:44:52;;;;;;;11.23;3.10;;;;;;;;;;4815251;28;21902;-70
2022/01/14 12:47:32;;;;;;;10.43;2.58;;;;;;;;;;4799950;28;20050;-70
2022/01/14 12:50:01;;;;;;;8.20;2.28;;;;;;;;;;4803934;28;20667;-70
2022/01/14 12:52:38;;;;;;;8.93;2.60;;;;;;;;;;4803853;28;20846;-69
2022/01/14 12:55:12;;;;;;;9.18;2.83;;;;;;;;;;4804010;28;20831;-68
2022/01/14 12:57:38;;;;;;;8.50;2.40;;;;;;;;;;4804842;28;21675;-70
2022/01/14 13:00:07;;;;;;;8.05;2.40;;;;;;;;;;4803597;28;20034;-69
2022/01/14 13:02:35;;;;;;;8.82;2.97;;;;;;;;;;4805058;28;20061;-70
2022/01/14 13:05:24;;;;;;;8.52;2.60;;;;;;;;;;4798170;28;20199;-71
2022/01/14 13:07:52;;;;;;;7.93;2.55;;;;;;;;;;4803609;28;21029;-68
2022/01/14 13:10:22;;;;;;;7.13;2.70;;;;;;;;;;4793272;28;20069;-71
2022/01/14 13:12:52;;;;;;;7.80;2.70;;;;;;;;;;4799790;28;20046;-74
2022/01/14 13:15:23;;;;;;;8.20;2.95;;;;;;;;;;4763110;28;20346;-71
2022/01/14 13:18:02;;;;;;;7.93;2.47;;;;;;;;;;4979076;28;20030;-70
2022/01/14 13:20:30;;;;;;;6.95;2.22;;;;;;;;;;4974393;28;20042;-72
2022/01/14 13:22:59;;;;;;;8.95;2.65;;;;;;;;;;4977199;28;20108;-71
2022/01/14 13:25:34;;;;;;;8.98;2.97;;;;;;;;;;4967591;28;20061;-69
2022/01/14 13:28:10;;;;;;;8.43;2.90;;;;;;;;;;4954821;28;20044;-69
2022/01/14 13:30:43;;;;;;;9.73;4.10;;;;;;;;;;4946272;28;22008;-70
2022/01/14 13:33:14;;;;;;;10.75;4.82;;;;;;;;;;4805280;28;20045;-72
2022/01/14 13:35:43;;;;;;;9.88;3.92;;;;;;;;;;4787170;28;20038;-70
2022/01/14 13:38:12;;;;;;;7.90;2.75;;;;;;;;;;4805815;28;20037;-71
2022/01/14 13:40:59;;;;;;;8.75;2.80;;;;;;;;;;4807613;28;20034;-71
2022/01/14 13:43:29;;;;;;;11.27;4.18;;;;;;;;;;4806452;28;20049;-69
2022/01/14 13:46:03;;;;;;;7.53;2.78;;;;;;;;;;4805262;28;20453;-68
2022/01/14 13:48:39;;;;;;;10.90;3.40;;;;;;;;;;4803927;28;20765;-70
2022/01/14 13:51:07;;;;;;;15.38;6.65;;;;;;;;;;4806546;28;20141;-70
2022/01/14 13:53:37;;;;;;;11.73;4.85;;;;;;;;;;4804564;28;20034;-69
2022/01/14 13:56:09;;;;;;;9.07;3.25;;;;;;;;;;4805846;28;20022;-71
2022/01/14 13:58:39;;;;;;;10.00;3.80;;;;;;;;;;4804331;28;20192;-69
2022/01/14 14:01:09;;;;;;;9.48;3.17;;;;;;;;;;4804772;28;20524;-69
2022/01/14 14:04:00;;;;;;;8.10;3.10;;;;;;;;;;4804628;28;20038;-71
2022/01/14 14:06:35;;;;;;;7.85;3.15;;;;;;;;;;4804985;28;20437;-70
2022/01/14 14:09:09;;;;;;;8.30;2.90;;;;;;;;;;4834381;28;20026;-69
2022/01/14 14:12:27;;;;;;;8.15;2.45;;;;;;;;;;4971958;28;20131;-69
2022/01/14 14:17:21;;;;;;;7.68;2.38;;;;;;;;;;4803985;28;20136;-70
2022/01/14 14:19:58;;;;;;;8.27;2.22;;;;;;;;;;4786394;28;21999;-70
2022/01/14 14:22:36;;;;;;;6.40;1.98;;;;;;;;;;4800278;28;20180;-70
2022/01/14 14:25:25;;;;;;;7.55;2.33;;;;;;;;;;4803885;28;20034;-70
2022/01/14 14:28:05;;;;;;;8.52;2.65;;;;;;;;;;4974949;28;20041;-70
2022/01/14 14:30:40;;;;;;;8.45;3.65;;;;;;;;;;4840124;28;20038;-70
2022/01/14 14:33:08;;;;;;;8.52;2.60;;;;;;;;;;4801259;28;20041;-69
2022/01/14 14:35:37;;;;;;;8.07;2.17;;;;;;;;;;4783563;28;20141;-68
2022/01/14 14:38:05;;;;;;;8.93;2.75;;;;;;;;;;4792762;28;20164;-69
2022/01/14 14:40:35;;;;;;;10.68;2.83;;;;;;;;;;4802345;28;20038;-70
2022/01/14 14:43:04;;;;;;;7.78;2.58;;;;;;;;;;4803603;28;20052;-71
2022/01/14 14:45:34;;;;;;;7.45;2.70;;;;;;;;;;4802827;28;20034;-70
2022/01/14 14:48:03;;;;;;;9.43;2.88;;;;;;;;;;4803363;28;20115;-71
2022/01/14 14:50:37;;;;;;;10.70;3.42;;;;;;;;;;4778993;28;20436;-70
2022/01/14 14:53:07;;;;;;;9.80;3.30;;;;;;;;;;4784894;28;20073;-70
2022/01/14 14:55:38;;;;;;;10.35;3.28;;;;;;;;;;4802534;28;20653;-70
2022/01/14 14:58:08;;;;;;;10.98;3.88;;;;;;;;;;4803089;28;20085;-69
2022/01/14 15:00:38;;;;;;;9.43;2.90;;;;;;;;;;4801195;28;20049;-70
2022/01/14 15:03:06;;;;;;;9.77;3.45;;;;;;;;;;4802115;28;20369;-67
2022/01/14 15:05:36;;;;;;;11.00;3.75;;;;;;;;;;4803437;28;20859;-69
2022/01/14 15:08:04;;;;;;;8.93;3.50;;;;;;;;;;4800696;28;20041;-69
2022/01/14 15:10:33;;;;;;;9.30;3.30;;;;;;;;;;4802003;28;20046;-69
2022/01/14 15:13:03;;;;;;;11.35;3.45;;;;;;;;;;4802741;28;20464;-70
2022/01/14 15:15:47;;;;;;;8.70;3.20;;;;;;;;;;4803739;28;20377;-68
2022/01/14 15:18:19;;;;;;;10.00;3.45;;;;;;;;;;4801434;28;20042;-69
2022/01/14 15:20:48;;;;;;;10.23;3.25;;;;;;;;;;4804111;28;20359;-69
2022/01/14 15:23:19;;;;;;;9.93;3.13;;;;;;;;;;4802417;28;20066;-69
2022/01/14 15:25:47;;;;;;;9.10;3.03;;;;;;;;;;4804589;28;20034;-69